createdAt,value
2019-06-15T00:00:15.250Z,101045.71
2019-06-15T00:02:44.433Z,101043.94
2019-06-15T00:05:13.748Z,101034.75
2019-06-15T00:07:42.927Z,101032.87
2019-06-15T00:10:13.406Z,101019.33
2019-06-15T00:12:42.611Z,101021.44
2019-06-15T00:15:11.923Z,101020.19
2019-06-15T00:17:41.139Z,101020.08
2019-06-15T00:20:10.763Z,101027.76
2019-06-15T00:22:39.913Z,101030.34
2019-06-15T00:25:10.348Z,101022.61
2019-06-15T00:27:39.531Z,101021.21
2019-06-15T00:30:10.361Z,101016.87
2019-06-15T00:32:39.604Z,101016.49
2019-06-15T00:35:09.548Z,101021.59
2019-06-15T00:37:38.842Z,101017.79
2019-06-15T00:40:08.666Z,101016.41
2019-06-15T00:42:37.834Z,101016.59
2019-06-15T00:45:08.415Z,101014.84
2019-06-15T00:47:37.599Z,101011.25
2019-06-15T00:50:07.576Z,101013.47
2019-06-15T00:52:36.763Z,101024.34
2019-06-15T00:55:07.076Z,101019.40
2019-06-15T00:57:37.105Z,101016.94
2019-06-15T01:00:08.183Z,101014.30
2019-06-15T01:02:37.362Z,101009.14
2019-06-15T01:05:06.890Z,101007.50
2019-06-15T01:07:36.136Z,101004.05
2019-06-15T01:10:08.627Z,101007.89
2019-06-15T01:12:38.571Z,101008.28
2019-06-15T01:15:08.353Z,101005.60
2019-06-15T01:17:37.580Z,101014.56
2019-06-15T01:20:08.006Z,101016.87
2019-06-15T01:22:37.247Z,101025.23
2019-06-15T01:25:07.670Z,101019.17
2019-06-15T01:27:37.853Z,101013.77
2019-06-15T01:30:11.566Z,101015.88
2019-06-15T01:32:40.804Z,101011.16
2019-06-15T01:35:10.424Z,101009.09
2019-06-15T01:37:39.699Z,100998.02
2019-06-15T01:40:09.493Z,100995.21
2019-06-15T01:42:38.684Z,100993.21
2019-06-15T01:45:08.807Z,100991.32
2019-06-15T01:47:38.008Z,100980.85
2019-06-15T01:50:07.679Z,100966.80
2019-06-15T01:52:36.772Z,100961.04
2019-06-15T01:55:20.519Z,100955.55
2019-06-15T01:57:39.766Z,100947.30
2019-06-15T02:00:11.049Z,100942.29
2019-06-15T02:02:40.237Z,100943.44
2019-06-15T02:05:09.675Z,100926.23
2019-06-15T02:07:38.862Z,100922.08
2019-06-15T02:10:08.495Z,100916.03
2019-06-15T02:12:37.672Z,100876.97
2019-06-15T02:15:07.219Z,100919.59
2019-06-15T02:17:37.381Z,100909.83
2019-06-15T02:20:08.278Z,100913.27
2019-06-15T02:22:37.455Z,100932.34
2019-06-15T02:25:07.587Z,100939.70
2019-06-15T02:27:55.312Z,100942.50
2019-06-15T02:30:27.578Z,100944.55
2019-06-15T02:32:57.892Z,100944.75
2019-06-15T02:35:27.398Z,100942.84
2019-06-15T02:37:56.857Z,100948.70
2019-06-15T02:40:26.088Z,100947.35
2019-06-15T02:42:55.323Z,100950.75
2019-06-15T02:45:24.936Z,100944.45
2019-06-15T02:47:54.112Z,100947.64
2019-06-15T02:50:23.438Z,100947.54
2019-06-15T02:52:52.741Z,100958.00
2019-06-15T02:55:21.963Z,100959.45
2019-06-15T02:57:51.161Z,100963.45
2019-06-15T03:00:29.061Z,100968.45
2019-06-15T03:02:58.228Z,100970.66
2019-06-15T03:05:27.561Z,100972.81
2019-06-15T03:07:56.834Z,100977.77
2019-06-15T03:10:26.017Z,100976.05
2019-06-15T03:12:55.283Z,100987.41
2019-06-15T03:15:24.452Z,100984.31
2019-06-15T03:17:54.249Z,100978.16
2019-06-15T03:20:23.448Z,100975.41
2019-06-15T03:22:52.659Z,100976.00
2019-06-15T03:25:21.842Z,100971.89
2019-06-15T03:27:51.077Z,100972.00
2019-06-15T03:30:20.507Z,100971.99
2019-06-15T03:32:50.651Z,100972.78
2019-06-15T03:35:20.198Z,100974.63
2019-06-15T03:37:49.510Z,100971.65
2019-06-15T03:40:22.723Z,100973.39
2019-06-15T03:42:51.918Z,100976.05
2019-06-15T03:45:21.188Z,100974.23
2019-06-15T03:47:50.499Z,100972.73
2019-06-15T03:50:19.683Z,100972.20
2019-06-15T03:52:48.854Z,100971.55
2019-06-15T03:55:18.180Z,100968.16
2019-06-15T03:57:47.397Z,100982.23
2019-06-15T04:00:36.027Z,100979.51
2019-06-15T04:03:05.568Z,100981.68
2019-06-15T04:05:34.768Z,100979.55
2019-06-15T04:08:03.940Z,100978.32
2019-06-15T04:10:33.105Z,100979.11
2019-06-15T04:13:02.294Z,100980.59
2019-06-15T04:15:31.572Z,100984.55
2019-06-15T04:18:00.718Z,100980.53
2019-06-15T04:20:30.820Z,100979.59
2019-06-15T04:23:00.008Z,100977.42
2019-06-15T04:25:31.954Z,100979.97
2019-06-15T04:28:01.153Z,100981.56
2019-06-15T04:30:30.358Z,100991.74
2019-06-15T04:32:59.536Z,100984.63
2019-06-15T04:35:28.710Z,100990.91
2019-06-15T04:37:58.879Z,100988.28
2019-06-15T04:40:28.036Z,100985.37
2019-06-15T04:42:57.243Z,100987.16
2019-06-15T04:45:26.415Z,100995.56
2019-06-15T04:47:55.658Z,100996.49
2019-06-15T04:50:24.828Z,100998.45
2019-06-15T04:52:54.010Z,101004.08
2019-06-15T04:55:23.247Z,100994.05
2019-06-15T04:57:52.393Z,101002.02
2019-06-15T05:00:21.638Z,100998.89
2019-06-15T05:02:50.820Z,101004.45
2019-06-15T05:05:19.995Z,101003.04
2019-06-15T05:07:49.204Z,101010.50
2019-06-15T05:10:19.365Z,101006.09
2019-06-15T05:12:48.541Z,101002.68
2019-06-15T05:15:17.786Z,100984.44
2019-06-15T05:17:46.963Z,100980.27
2019-06-15T05:20:16.244Z,100969.11
2019-06-15T05:22:45.417Z,100979.80
2019-06-15T05:25:14.604Z,100988.89
2019-06-15T05:27:44.792Z,100998.00
2019-06-15T05:30:14.122Z,100991.95
2019-06-15T05:32:43.326Z,100995.17
2019-06-15T05:35:12.584Z,100988.20
2019-06-15T05:37:41.799Z,100991.78
2019-06-15T05:40:13.368Z,100988.35
2019-06-15T05:42:42.546Z,100996.59
2019-06-15T05:45:12.318Z,100993.33
2019-06-15T05:47:41.513Z,100984.34
2019-06-15T05:50:10.790Z,100973.72
2019-06-15T05:52:39.978Z,100977.13
2019-06-15T05:55:09.694Z,100965.55
2019-06-15T05:57:38.873Z,100968.31
2019-06-15T06:00:10.582Z,100964.73
2019-06-15T06:02:39.804Z,100971.58
2019-06-15T06:05:09.434Z,100967.59
2019-06-15T06:07:38.621Z,100961.64
2019-06-15T06:10:10.926Z,100956.34
2019-06-15T06:12:39.824Z,100949.73
2019-06-15T06:15:09.875Z,100936.34
2019-06-15T06:17:41.546Z,100929.36
2019-06-15T06:20:10.784Z,100917.22
2019-06-15T06:22:39.981Z,100918.90
2019-06-15T06:25:10.041Z,100914.55
2019-06-15T06:27:39.221Z,100915.41
2019-06-15T06:30:10.842Z,100904.87
2019-06-15T06:32:40.046Z,100898.78
2019-06-15T06:35:09.992Z,100901.48
2019-06-15T06:37:39.162Z,100895.25
2019-06-15T06:40:10.759Z,100907.84
2019-06-15T06:42:39.974Z,100904.76
2019-06-15T06:45:10.026Z,100917.73
2019-06-15T06:47:39.281Z,100920.93
2019-06-15T06:50:09.403Z,100925.31
2019-06-15T06:52:38.593Z,100930.31
2019-06-15T06:55:08.240Z,100944.00
2019-06-15T06:57:51.367Z,100954.66
2019-06-15T07:00:10.352Z,100974.08
2019-06-15T07:02:40.367Z,100988.39
2019-06-15T07:05:10.091Z,100999.25
2019-06-15T07:07:40.307Z,101010.19
2019-06-15T07:10:09.837Z,101017.75
2019-06-15T07:12:39.035Z,101016.59
2019-06-15T07:15:08.854Z,101019.20
2019-06-15T07:17:38.055Z,101020.05
2019-06-15T07:20:10.757Z,101022.39
2019-06-15T07:22:39.954Z,101026.81
2019-06-15T07:25:09.462Z,101032.00
2019-06-15T07:27:38.657Z,101030.69
2019-06-15T07:30:10.352Z,101028.22
2019-06-15T07:32:39.881Z,101042.41
2019-06-15T07:35:09.547Z,101043.17
2019-06-15T07:37:38.745Z,101045.19
2019-06-15T07:40:08.375Z,101038.85
2019-06-15T07:42:39.371Z,101047.73
2019-06-15T07:45:09.076Z,101051.64
2019-06-15T07:47:38.267Z,101055.52
2019-06-15T07:50:08.214Z,101050.29
2019-06-15T07:52:37.507Z,101052.39
2019-06-15T07:55:08.241Z,101056.16
2019-06-15T07:57:37.450Z,101057.70
2019-06-15T08:00:11.987Z,101054.72
2019-06-15T08:02:41.166Z,101060.93
2019-06-15T08:05:11.232Z,101065.33
2019-06-15T08:07:40.411Z,101072.73
2019-06-15T08:10:10.035Z,101081.28
2019-06-15T08:12:39.248Z,101084.95
2019-06-15T08:15:09.957Z,101101.42
2019-06-15T08:17:39.163Z,101096.06
2019-06-15T08:20:10.755Z,101102.26
2019-06-15T08:22:40.546Z,101112.78
2019-06-15T08:25:10.282Z,101106.19
2019-06-15T08:27:39.723Z,101085.34
2019-06-15T08:30:09.959Z,101086.45
2019-06-15T08:32:40.108Z,101096.72
2019-06-15T08:35:09.379Z,101101.11
2019-06-15T08:37:38.646Z,101101.61
2019-06-15T08:40:09.456Z,101100.62
2019-06-15T08:42:38.704Z,101107.53
2019-06-15T08:45:08.639Z,101122.34
2019-06-15T08:47:37.847Z,101133.43
2019-06-15T08:50:07.570Z,101141.57
2019-06-15T08:52:36.771Z,101145.61
2019-06-15T08:55:06.724Z,101145.11
2019-06-15T08:57:35.917Z,101149.06
2019-06-15T09:00:07.662Z,101138.92
2019-06-15T09:02:36.863Z,101146.79
2019-06-15T09:05:07.523Z,101151.14
2019-06-15T09:07:37.002Z,101151.19
2019-06-15T09:10:10.576Z,101155.64
2019-06-15T09:12:39.796Z,101157.69
2019-06-15T09:15:09.958Z,101160.45
2019-06-15T09:17:39.085Z,101162.59
2019-06-15T09:20:09.497Z,101173.19
2019-06-15T09:22:38.698Z,101169.94
2019-06-15T09:25:08.417Z,101176.42
2019-06-15T09:27:37.673Z,101175.41
2019-06-15T09:30:07.607Z,101181.36
2019-06-15T09:32:36.803Z,101191.16
2019-06-15T09:35:09.215Z,101201.38
2019-06-15T09:37:39.298Z,101206.09
2019-06-15T09:40:08.536Z,101201.84
2019-06-15T09:42:38.091Z,101207.02
2019-06-15T09:45:08.899Z,101204.48
2019-06-15T09:47:38.089Z,101209.72
2019-06-15T09:50:07.664Z,101211.40
2019-06-15T09:52:36.882Z,101210.51
2019-06-15T09:55:08.073Z,101209.91
2019-06-15T09:57:37.260Z,101214.66
2019-06-15T10:00:08.776Z,101216.37
2019-06-15T10:02:38.607Z,101216.47
2019-06-15T10:05:09.135Z,101216.03
2019-06-15T10:07:39.364Z,101223.61
2019-06-15T10:10:09.179Z,101232.05
2019-06-15T10:12:38.453Z,101236.41
2019-06-15T10:15:08.781Z,101245.81
2019-06-15T10:17:38.007Z,101240.63
2019-06-15T10:20:09.053Z,101237.98
2019-06-15T10:22:38.254Z,101233.91
2019-06-15T10:25:08.698Z,101244.23
2019-06-15T10:27:37.876Z,101244.94
2019-06-15T10:30:08.261Z,101246.22
2019-06-15T10:32:37.495Z,101245.45
2019-06-15T10:35:07.803Z,101246.80
2019-06-15T10:37:37.034Z,101250.06
2019-06-15T10:40:07.777Z,101254.56
2019-06-15T10:42:37.023Z,101258.02
2019-06-15T10:45:07.369Z,101260.87
2019-06-15T10:47:36.679Z,101270.61
2019-06-15T10:50:07.528Z,101267.44
2019-06-15T10:52:36.728Z,101273.01
2019-06-15T10:55:09.027Z,101284.38
2019-06-15T10:57:38.203Z,101278.17
2019-06-15T11:00:11.644Z,101282.43
2019-06-15T11:02:41.028Z,101290.55
2019-06-15T11:05:11.892Z,101294.87
2019-06-15T11:07:41.544Z,101288.00
2019-06-15T11:10:13.243Z,101295.16
2019-06-15T11:12:46.638Z,101295.27
2019-06-15T11:15:14.214Z,101304.19
2019-06-15T11:17:43.732Z,101308.15
2019-06-15T11:20:14.062Z,101305.80
2019-06-15T11:22:43.253Z,101306.84
2019-06-15T11:25:12.873Z,101313.02
2019-06-15T11:27:42.064Z,101315.22
2019-06-15T11:30:14.104Z,101317.33
2019-06-15T11:32:42.481Z,101316.58
2019-06-15T11:35:11.649Z,101318.47
2019-06-15T11:37:40.825Z,101329.19
2019-06-15T11:40:10.283Z,101342.19
2019-06-15T11:42:39.507Z,101341.18
2019-06-15T11:45:08.981Z,101339.69
2019-06-15T11:47:56.166Z,101342.69
2019-06-15T11:50:25.347Z,101340.73
2019-06-15T11:52:54.553Z,101347.06
2019-06-15T11:55:38.380Z,101341.19
2019-06-15T11:57:55.019Z,101342.14
2019-06-15T12:00:31.508Z,101340.53
2019-06-15T12:02:58.148Z,101341.00
2019-06-15T12:05:27.358Z,101338.19
2019-06-15T12:07:56.561Z,101343.34
2019-06-15T12:10:25.723Z,101346.00
2019-06-15T12:12:54.913Z,101349.31
2019-06-15T12:15:24.097Z,101355.94
2019-06-15T12:17:53.316Z,101355.47
2019-06-15T12:20:22.546Z,101363.41
2019-06-15T12:22:52.847Z,101364.85
2019-06-15T12:25:22.069Z,101356.28
2019-06-15T12:27:51.408Z,101365.37
2019-06-15T12:30:46.530Z,101370.47
2019-06-15T12:33:09.901Z,101371.23
2019-06-15T12:35:38.989Z,101380.27
2019-06-15T12:38:08.192Z,101376.70
2019-06-15T12:40:37.406Z,101372.84
2019-06-15T12:43:06.615Z,101376.15
2019-06-15T12:45:35.798Z,101370.27
2019-06-15T12:48:05.956Z,101364.80
2019-06-15T12:50:35.140Z,101374.98
2019-06-15T12:53:04.320Z,101384.06
2019-06-15T12:55:33.515Z,101377.90
2019-06-15T12:58:02.706Z,101376.05
2019-06-15T13:00:37.074Z,101377.14
2019-06-15T13:03:06.330Z,101379.15
2019-06-15T13:05:35.666Z,101371.33
2019-06-15T13:08:05.012Z,101378.80
2019-06-15T13:10:34.251Z,101383.63
2019-06-15T13:13:03.423Z,101384.52
2019-06-15T13:15:32.615Z,101389.44
2019-06-15T13:18:01.868Z,101392.40
2019-06-15T13:20:31.208Z,101387.08
2019-06-15T13:23:00.547Z,101390.73
2019-06-15T13:25:29.738Z,101390.50
2019-06-15T13:27:58.987Z,101387.58
2019-06-15T13:30:28.161Z,101386.33
2019-06-15T13:32:57.437Z,101386.78
2019-06-15T13:35:26.629Z,101381.56
2019-06-15T13:37:55.824Z,101385.28
2019-06-15T13:40:25.021Z,101386.78
2019-06-15T13:42:54.264Z,101383.92
2019-06-15T13:45:23.623Z,101387.80
2019-06-15T13:47:52.889Z,101394.86
2019-06-15T13:50:23.032Z,101390.78
2019-06-15T13:52:52.300Z,101392.69
2019-06-15T13:55:22.068Z,101394.33
2019-06-15T13:57:51.504Z,101390.91
2019-06-15T14:00:21.033Z,101389.66
2019-06-15T14:02:50.218Z,101395.33
2019-06-15T14:05:19.555Z,101383.31
2019-06-15T14:07:48.813Z,101384.77
2019-06-15T14:10:18.095Z,101383.45
2019-06-15T14:12:47.288Z,101389.59
2019-06-15T14:15:17.940Z,101392.55
2019-06-15T14:17:47.143Z,101397.83
2019-06-15T14:20:16.476Z,101387.45
2019-06-15T14:22:45.662Z,101381.24
2019-06-15T14:25:14.892Z,101381.20
2019-06-15T14:27:44.100Z,101374.97
2019-06-15T14:30:13.750Z,101379.17
2019-06-15T14:32:42.899Z,101373.22
2019-06-15T14:35:13.607Z,101375.07
2019-06-15T14:37:42.805Z,101373.11
2019-06-15T14:40:12.083Z,101365.72
2019-06-15T14:42:41.260Z,101366.01
2019-06-15T14:45:11.004Z,101361.50
2019-06-15T14:47:40.191Z,101361.86
2019-06-15T14:50:09.837Z,101353.26
2019-06-15T14:52:39.115Z,101362.25
2019-06-15T14:55:08.474Z,101358.10
2019-06-15T14:57:37.677Z,101369.78
2019-06-15T15:00:08.881Z,101374.23
2019-06-15T15:02:38.377Z,101377.49
2019-06-15T15:05:08.035Z,101380.09
2019-06-15T15:07:37.303Z,101385.91
2019-06-15T15:10:08.425Z,101385.98
2019-06-15T15:12:37.604Z,101383.05
2019-06-15T15:15:08.472Z,101383.45
2019-06-15T15:17:37.635Z,101372.91
2019-06-15T15:20:07.566Z,101377.00
2019-06-15T15:22:37.259Z,101377.50
2019-06-15T15:25:07.584Z,101379.13
2019-06-15T15:27:37.567Z,101381.63
2019-06-15T15:30:08.435Z,101391.31
2019-06-15T15:32:37.895Z,101382.43
2019-06-15T15:35:07.521Z,101381.56
2019-06-15T15:37:37.306Z,101382.56
2019-06-15T15:40:07.506Z,101391.92
2019-06-15T15:42:37.302Z,101396.66
2019-06-15T15:45:08.647Z,101395.22
2019-06-15T15:47:37.842Z,101388.73
2019-06-15T15:50:07.747Z,101398.02
2019-06-15T15:52:37.576Z,101394.55
2019-06-15T15:55:07.642Z,101389.26
2019-06-15T15:57:36.811Z,101386.52
2019-06-15T16:00:09.156Z,101394.16
2019-06-15T16:02:47.543Z,101398.34
2019-06-15T16:05:09.313Z,101396.88
2019-06-15T16:07:38.959Z,101400.70
2019-06-15T16:10:08.222Z,101405.02
2019-06-15T16:12:37.420Z,101402.53
2019-06-15T16:15:07.584Z,101411.06
2019-06-15T16:17:37.444Z,101411.91
2019-06-15T16:20:09.728Z,101409.70
2019-06-15T16:22:38.912Z,101412.60
2019-06-15T16:25:08.228Z,101413.16
2019-06-15T16:27:37.457Z,101417.09
2019-06-15T16:30:07.608Z,101421.24
2019-06-15T16:32:37.184Z,101418.53
2019-06-15T16:35:08.023Z,101423.45
2019-06-15T16:37:37.251Z,101416.67
2019-06-15T16:40:11.011Z,101421.05
2019-06-15T16:42:41.944Z,101421.73
2019-06-15T16:45:11.293Z,101417.50
2019-06-15T16:47:40.480Z,101416.92
2019-06-15T16:50:09.736Z,101411.97
2019-06-15T16:52:38.931Z,101405.91
2019-06-15T16:55:10.910Z,101401.47
2019-06-15T16:57:39.135Z,101388.82
2019-06-15T17:00:19.685Z,101408.12
2019-06-15T17:02:49.719Z,101400.45
2019-06-15T17:05:19.513Z,101399.70
2019-06-15T17:07:48.762Z,101390.70
2019-06-15T17:10:32.752Z,101397.24
2019-06-15T17:13:01.943Z,101393.53
2019-06-15T17:15:31.136Z,101396.02
2019-06-15T17:18:00.362Z,101401.08
2019-06-15T17:20:36.330Z,101402.58
2019-06-15T17:23:06.790Z,101403.36
2019-06-15T17:25:36.926Z,101403.72
2019-06-15T17:28:06.114Z,101405.63
2019-06-15T17:30:37.063Z,101413.37
2019-06-15T17:33:08.374Z,101412.25
2019-06-15T17:35:37.369Z,101402.92
2019-06-15T17:38:06.545Z,101406.37
2019-06-15T17:40:36.478Z,101402.70
2019-06-15T17:43:06.600Z,101401.72
2019-06-15T17:45:37.571Z,101410.47
2019-06-15T17:48:07.165Z,101407.51
2019-06-15T17:50:41.492Z,101407.25
2019-06-15T17:53:10.715Z,101392.72
2019-06-15T17:55:39.965Z,101393.23
2019-06-15T17:58:09.220Z,101400.77
2019-06-15T18:00:47.271Z,101398.67
2019-06-15T18:03:17.223Z,101400.02
2019-06-15T18:05:48.015Z,101406.81
2019-06-15T18:08:17.634Z,101403.81
2019-06-15T18:10:47.873Z,101402.34
2019-06-15T18:13:17.518Z,101398.28
2019-06-15T18:15:47.512Z,101401.25
2019-06-15T18:18:18.081Z,101406.29
2019-06-15T18:20:47.332Z,101400.86
2019-06-15T18:23:17.486Z,101395.66
2019-06-15T18:25:47.171Z,101396.66
2019-06-15T18:28:17.591Z,101401.58
2019-06-15T18:30:47.491Z,101394.30
2019-06-15T18:33:17.472Z,101396.40
2019-06-15T18:35:47.492Z,101399.73
2019-06-15T18:38:17.155Z,101397.52
2019-06-15T18:40:46.319Z,101393.44
2019-06-15T18:43:16.762Z,101394.30
2019-06-15T18:45:47.321Z,101390.59
2019-06-15T18:48:17.036Z,101393.36
2019-06-15T18:50:46.457Z,101398.10
2019-06-15T18:53:15.688Z,101394.61
2019-06-15T18:55:47.175Z,101393.08
2019-06-15T18:58:17.367Z,101406.59
2019-06-15T19:00:46.639Z,101401.56
2019-06-15T19:03:16.750Z,101404.27
2019-06-15T19:05:47.014Z,101402.97
2019-06-15T19:08:17.425Z,101408.00
2019-06-15T19:10:46.857Z,101402.97
2019-06-15T19:13:16.302Z,101402.86
2019-06-15T19:15:46.686Z,101401.61
2019-06-15T19:18:17.752Z,101403.33
2019-06-15T19:20:47.800Z,101395.19
2019-06-15T19:23:17.084Z,101398.23
2019-06-15T19:25:47.058Z,101396.96
2019-06-15T19:28:16.785Z,101403.13
2019-06-15T19:30:47.171Z,101401.91
2019-06-15T19:33:16.694Z,101408.34
2019-06-15T19:35:46.426Z,101416.83
2019-06-15T19:38:16.336Z,101414.59
2019-06-15T19:40:46.211Z,101424.09
2019-06-15T19:43:16.238Z,101422.73
2019-06-15T19:45:45.874Z,101426.05
2019-06-15T19:48:17.058Z,101419.66
2019-06-15T19:50:46.330Z,101422.70
2019-06-15T19:53:17.232Z,101430.09
2019-06-15T19:55:46.709Z,101431.19
2019-06-15T19:58:16.510Z,101435.02
2019-06-15T20:00:46.826Z,101436.83
2019-06-15T20:03:16.808Z,101441.65
2019-06-15T20:05:46.338Z,101447.68
2019-06-15T20:08:17.796Z,101442.83
2019-06-15T20:10:47.336Z,101444.28
2019-06-15T20:13:16.807Z,101447.31
2019-06-15T20:15:46.974Z,101447.92
2019-06-15T20:18:17.705Z,101455.70
2019-06-15T20:20:47.182Z,101462.14
2019-06-15T20:23:16.385Z,101465.50
2019-06-15T20:25:47.025Z,101469.21
2019-06-15T20:28:16.558Z,101468.00
2019-06-15T20:30:47.185Z,101469.13
2019-06-15T20:33:16.828Z,101472.88
2019-06-15T20:35:47.315Z,101475.66
2019-06-15T20:38:16.702Z,101477.30
2019-06-15T20:40:47.607Z,101481.58
2019-06-15T20:43:17.199Z,101488.06
2019-06-15T20:45:47.625Z,101487.09
2019-06-15T20:48:16.882Z,101488.30
2019-06-15T20:50:47.165Z,101485.64
2019-06-15T20:53:18.240Z,101486.05
2019-06-15T20:55:47.540Z,101481.69
2019-06-15T20:58:17.331Z,101488.91
2019-06-15T21:00:47.670Z,101492.97
2019-06-15T21:03:17.126Z,101487.65
2019-06-15T21:05:47.677Z,101490.72
2019-06-15T21:08:17.239Z,101491.42
2019-06-15T21:10:46.642Z,101487.10
2019-06-15T21:13:17.037Z,101482.13
2019-06-15T21:15:47.636Z,101481.89
2019-06-15T21:18:17.062Z,101476.76
2019-06-15T21:20:47.051Z,101477.52
2019-06-15T21:23:17.161Z,101474.26
2019-06-15T21:25:46.818Z,101477.36
2019-06-15T21:28:17.016Z,101479.52
2019-06-15T21:30:47.289Z,101480.58
2019-06-15T21:33:16.679Z,101481.14
2019-06-15T21:35:49.891Z,101476.98
2019-06-15T21:38:16.879Z,101479.64
2019-06-15T21:40:47.646Z,101485.91
2019-06-15T21:43:17.044Z,101487.66
2019-06-15T21:45:46.487Z,101485.91
2019-06-15T21:48:15.686Z,101489.50
2019-06-15T21:50:47.195Z,101491.02
2019-06-15T21:53:16.730Z,101491.38
2019-06-15T21:55:47.239Z,101490.09
2019-06-15T21:58:16.799Z,101497.42
2019-06-15T22:00:58.016Z,101498.91
2019-06-15T22:03:27.211Z,101502.08
2019-06-15T22:06:02.719Z,101497.67
2019-06-15T22:08:27.273Z,101502.89
2019-06-15T22:10:56.465Z,101508.55
2019-06-15T22:13:26.569Z,101507.89
2019-06-15T22:15:56.173Z,101500.74
2019-06-15T22:18:27.235Z,101504.61
2019-06-15T22:20:57.469Z,101504.70
2019-06-15T22:23:26.957Z,101503.25
2019-06-15T22:25:57.065Z,101504.21
2019-06-15T22:28:29.941Z,101505.80
2019-06-15T22:30:59.113Z,101506.92
2019-06-15T22:33:29.196Z,101513.03
2019-06-15T22:35:58.399Z,101513.17
2019-06-15T22:38:27.554Z,101520.70
2019-06-15T22:40:56.742Z,101527.08
2019-06-15T22:43:27.350Z,101520.34
2019-06-15T22:45:56.581Z,101523.70
2019-06-15T22:48:27.199Z,101529.45
2019-06-15T22:50:56.564Z,101528.16
2019-06-15T22:53:27.119Z,101528.19
2019-06-15T22:55:57.054Z,101525.28
2019-06-15T22:58:27.022Z,101526.98
2019-06-15T23:00:57.323Z,101525.63
2019-06-15T23:03:26.576Z,101528.33
2019-06-15T23:05:57.107Z,101527.84
2019-06-15T23:08:26.816Z,101533.16
2019-06-15T23:10:57.166Z,101531.04
2019-06-15T23:13:26.573Z,101531.96
2019-06-15T23:15:56.414Z,101535.92
2019-06-15T23:18:25.836Z,101537.96
2019-06-15T23:20:56.908Z,101539.09
2019-06-15T23:23:25.940Z,101535.66
2019-06-15T23:25:56.644Z,101534.41
2019-06-15T23:28:27.095Z,101537.02
2019-06-15T23:30:56.534Z,101536.42
2019-06-15T23:33:26.598Z,101531.66
2019-06-15T23:35:57.601Z,101537.48
2019-06-15T23:38:27.021Z,101539.53
2019-06-15T23:40:56.280Z,101539.98
2019-06-15T23:43:26.884Z,101534.31
2019-06-15T23:45:56.213Z,101542.34
2019-06-15T23:48:26.632Z,101544.83
2019-06-15T23:50:56.915Z,101547.14
2019-06-15T23:53:26.250Z,101544.39
2019-06-15T23:55:56.830Z,101547.00
2019-06-15T23:58:26.435Z,101542.69
